»·PEaware :: ACA461 CYVR-KSFO

ACA461 :: CYVR-KSFO

FLIGHT INFORMATION

Flight Status: Arrived
Operator:
Air Canada
More flights by this operator :: More flights under this callsign
Pilot: Konrad W. (32064)
Aircraft: AIRBUS A320
(A320)
More flights by this aircraft type
Origin: CYVR Vancouver Intl
Canada
Destination: KSFO San Francisco Intl
United States
More flights between these airports :: More routes between these airports
Route: +YVR1 YVR FEPOT Q3 FOWND MLBEC BDEGA3
File this flight plan on PilotEdge
Remarks:
Altitude:
(Current/Filed)
37,000ft
Speed:
(Current/Filed)
430kts
Departed: 18-Dec-20 08:07 PM
Arrived: 18-Dec-20 10:01 PM
Distance/Time
Traveled:
695nm/1:53
Distance/Time
To Go:
Arrived

Flight Plot

Page will automatically refresh every two minutes.

Flight plan parsing failed; only flown route is shown


Map Options




Map Legend


Flown Route
Filed Route
Departure Airport
Arrival Airport
Navaid (VOR, NDB)
Fix

Horizontal Profiles

Position Reports

Time Latitude Longitude Heading Altitude Ground
Speed
18-Dec-20 19:46 49.195715 -123.186086 99 22ft 0kts
18-Dec-20 19:47 49.195715 -123.186086 99 22ft 0kts
18-Dec-20 19:48 49.195715 -123.186086 99 22ft 0kts
18-Dec-20 19:49 49.195715 -123.186086 99 22ft 0kts
18-Dec-20 19:50 49.195715 -123.186086 99 22ft 0kts
18-Dec-20 19:51 49.195715 -123.186086 99 22ft 0kts
18-Dec-20 19:52 49.195859 -123.186681 146 22ft 2kts
18-Dec-20 19:53 49.196017 -123.186754 185 22ft 0kts
18-Dec-20 19:54 49.196017 -123.186754 185 22ft 0kts
18-Dec-20 19:55 49.196017 -123.186754 185 22ft 0kts
18-Dec-20 19:56 49.196017 -123.186754 185 22ft 0kts
18-Dec-20 19:57 49.196017 -123.186754 185 22ft 0kts
18-Dec-20 19:58 49.196017 -123.186754 185 22ft 0kts
18-Dec-20 19:59 49.196017 -123.186754 185 22ft 0kts
18-Dec-20 20:00 49.190752 -123.185964 142 22ft 26kts
18-Dec-20 20:01 49.188454 -123.174784 99 22ft 31kts
18-Dec-20 20:02 49.187202 -123.163868 99 22ft 7kts
18-Dec-20 20:03 49.186120 -123.159604 99 22ft 16kts
18-Dec-20 20:05 49.186091 -123.159336 99 22ft 0kts
18-Dec-20 20:06 49.184533 -123.159125 279 25ft 0kts
18-Dec-20 20:07 49.186789 -123.178740 275 57ft 165kts
18-Dec-20 20:08 49.197421 -123.285532 257 2245ft 315kts
18-Dec-20 20:09 49.151419 -123.317588 139 3967ft 217kts
18-Dec-20 20:10 49.118006 -123.234863 127 6154ft 242kts
18-Dec-20 20:11 49.078034 -123.152384 152 8196ft 243kts
18-Dec-20 20:12 49.037586 -123.191590 265 10066ft 226kts
18-Dec-20 20:13 49.004695 -123.257790 189 11873ft 243kts
18-Dec-20 20:14 48.934337 -123.248277 181 13193ft 266kts
18-Dec-20 20:15 48.855800 -123.241204 185 15183ft 305kts
18-Dec-20 20:16 48.768839 -123.238412 187 17326ft 321kts
18-Dec-20 20:17 48.680119 -123.236938 187 19855ft 327kts
18-Dec-20 20:18 48.587064 -123.236087 187 21786ft 353kts
18-Dec-20 20:19 48.488698 -123.234972 187 23344ft 360kts
18-Dec-20 20:20 48.388737 -123.233758 187 24850ft 366kts
18-Dec-20 20:21 48.286504 -123.232654 187 26347ft 374kts
18-Dec-20 20:21 48.199301 -123.231646 187 27581ft 381kts
18-Dec-20 20:23 48.075390 -123.230225 187 29297ft 388kts
18-Dec-20 20:23 47.985293 -123.229224 187 30571ft 393kts
18-Dec-20 20:24 47.876199 -123.228016 187 32142ft 402kts
18-Dec-20 20:26 47.744999 -123.226568 187 33907ft 413kts
18-Dec-20 20:26 47.649039 -123.225459 186 35169ft 421kts
18-Dec-20 20:27 47.531709 -123.224132 187 36658ft 426kts
18-Dec-20 20:28 47.409198 -123.223079 187 36966ft 462kts
18-Dec-20 20:29 47.280411 -123.221327 186 36971ft 462kts
18-Dec-20 20:30 47.151860 -123.219682 186 36964ft 468kts
18-Dec-20 20:31 47.022282 -123.219568 186 36969ft 470kts
18-Dec-20 20:32 46.891818 -123.214799 185 37197ft 476kts
18-Dec-20 20:33 46.760800 -123.209436 185 37203ft 476kts
18-Dec-20 20:34 46.629955 -123.204410 185 37041ft 470kts
18-Dec-20 20:35 46.499506 -123.199816 185 37034ft 473kts
18-Dec-20 20:36 46.369240 -123.195323 185 37054ft 468kts
18-Dec-20 20:37 46.238960 -123.191025 185 37117ft 471kts
18-Dec-20 20:38 46.109195 -123.186727 185 37092ft 471kts
18-Dec-20 20:39 45.978898 -123.182508 185 37109ft 470kts
18-Dec-20 20:40 45.848368 -123.178331 185 37282ft 474kts
18-Dec-20 20:41 45.717117 -123.174104 185 37322ft 475kts
18-Dec-20 20:42 45.586609 -123.169906 185 37304ft 474kts
18-Dec-20 20:43 45.455180 -123.165731 185 37312ft 475kts
18-Dec-20 20:44 45.323618 -123.161565 185 37323ft 478kts
18-Dec-20 20:45 45.191719 -123.157412 185 37188ft 477kts
18-Dec-20 20:46 45.060609 -123.153302 185 37165ft 477kts
18-Dec-20 20:47 44.928739 -123.149249 185 37333ft 479kts
18-Dec-20 20:48 44.795311 -123.145097 185 37175ft 481kts
18-Dec-20 20:49 44.662027 -123.140969 184 37322ft 484kts
18-Dec-20 20:50 44.528554 -123.136801 184 37336ft 485kts
18-Dec-20 20:51 44.394691 -123.132219 184 37223ft 482kts
18-Dec-20 20:52 44.261010 -123.127571 184 37342ft 485kts
18-Dec-20 20:53 44.127235 -123.122831 183 37283ft 485kts
18-Dec-20 20:54 43.994191 -123.118125 183 37261ft 483kts
18-Dec-20 20:55 43.861542 -123.113466 183 37257ft 481kts
18-Dec-20 20:56 43.728668 -123.108809 183 37344ft 481kts
18-Dec-20 20:57 43.597169 -123.104183 183 37378ft 476kts
18-Dec-20 20:58 43.465560 -123.099643 183 37398ft 476kts
18-Dec-20 20:59 43.334300 -123.095085 183 37422ft 474kts
18-Dec-20 21:00 43.203663 -123.090589 182 37333ft 473kts
18-Dec-20 21:01 43.073259 -123.086117 182 37398ft 473kts
18-Dec-20 21:02 42.942427 -123.081642 182 37323ft 471kts
18-Dec-20 21:03 42.812722 -123.077235 182 37391ft 471kts
18-Dec-20 21:04 42.681838 -123.072684 181 37452ft 473kts
18-Dec-20 21:05 42.551376 -123.068213 181 37457ft 473kts
18-Dec-20 21:06 42.420880 -123.063916 181 37426ft 473kts
18-Dec-20 21:07 42.290680 -123.059670 181 37392ft 471kts
18-Dec-20 21:08 42.160145 -123.055239 181 37391ft 472kts
18-Dec-20 21:09 42.029041 -123.051033 181 37404ft 473kts
18-Dec-20 21:10 41.898047 -123.046891 181 37454ft 474kts
18-Dec-20 21:11 41.766683 -123.042730 180 37470ft 477kts
18-Dec-20 21:12 41.635475 -123.038499 181 37476ft 476kts
18-Dec-20 21:13 41.503357 -123.034565 181 37450ft 476kts
18-Dec-20 21:14 41.371618 -123.030337 181 37456ft 475kts
18-Dec-20 21:15 41.239485 -123.026345 180 37468ft 476kts
18-Dec-20 21:16 41.107675 -123.022033 180 37452ft 476kts
18-Dec-20 21:17 40.975942 -123.018003 180 37474ft 477kts
18-Dec-20 21:18 40.844336 -123.014132 180 37467ft 477kts
18-Dec-20 21:19 40.713199 -123.010229 180 37466ft 477kts
18-Dec-20 21:20 40.581476 -123.006358 180 37448ft 476kts
18-Dec-20 21:21 40.449684 -123.002566 180 37458ft 476kts
18-Dec-20 21:22 40.318214 -122.998779 180 37430ft 475kts
18-Dec-20 21:23 40.187014 -122.994906 180 37430ft 475kts
18-Dec-20 21:24 40.055752 -122.991035 180 37229ft 477kts
18-Dec-20 21:25 39.925824 -122.987208 180 36240ft 465kts
18-Dec-20 21:26 39.798241 -122.983496 180 35268ft 458kts
18-Dec-20 21:27 39.672534 -122.979883 180 34284ft 451kts
18-Dec-20 21:28 39.548886 -122.976354 180 33292ft 444kts
18-Dec-20 21:29 39.426811 -122.972860 180 32272ft 439kts
18-Dec-20 21:30 39.303992 -122.969379 180 31288ft 443kts
18-Dec-20 21:31 39.182181 -122.965835 180 30281ft 437kts
18-Dec-20 21:32 39.061851 -122.962707 180 29518ft 432kts
18-Dec-20 21:33 38.941661 -122.960271 180 29452ft 434kts
18-Dec-20 21:34 38.822245 -122.943309 169 28918ft 433kts
18-Dec-20 21:35 38.706977 -122.910028 167 27374ft 425kts
18-Dec-20 21:36 38.593966 -122.876007 167 25632ft 415kts
18-Dec-20 21:37 38.484694 -122.843689 167 23935ft 406kts
18-Dec-20 21:38 38.374861 -122.811553 167 22141ft 399kts
18-Dec-20 21:39 38.269399 -122.780698 167 20359ft 386kts
18-Dec-20 21:40 38.166776 -122.750878 167 18575ft 379kts
18-Dec-20 21:41 38.065370 -122.721479 166 16884ft 373kts
18-Dec-20 21:42 37.965581 -122.692574 166 15390ft 368kts
18-Dec-20 21:43 37.873123 -122.645980 142 13871ft 357kts
18-Dec-20 21:44 37.798238 -122.569539 133 12366ft 333kts
18-Dec-20 21:45 37.731138 -122.495418 130 10619ft 309kts
18-Dec-20 21:46 37.680203 -122.415802 120 8927ft 288kts
18-Dec-20 21:47 37.636300 -122.336455 119 7231ft 267kts
18-Dec-20 21:48 37.596670 -122.262771 119 6101ft 239kts
18-Dec-20 21:49 37.560838 -122.195820 111 6012ft 230kts
18-Dec-20 21:50 37.544617 -122.118972 95 4873ft 223kts
18-Dec-20 21:51 37.533827 -122.044599 98 4059ft 218kts
18-Dec-20 21:52 37.483438 -122.030284 234 3936ft 230kts
18-Dec-20 21:53 37.491714 -122.089127 315 4000ft 175kts
18-Dec-20 21:54 37.518824 -122.137181 304 3696ft 159kts
18-Dec-20 21:55 37.538927 -122.185304 303 2882ft 157kts
18-Dec-20 21:56 37.559310 -122.233777 300 2104ft 158kts
18-Dec-20 21:57 37.579653 -122.282282 299 1321ft 159kts
18-Dec-20 21:58 37.599674 -122.329779 298 535ft 143kts
18-Dec-20 21:59 37.616799 -122.370600 297 22ft 110kts
18-Dec-20 22:01 37.619447 -122.379613 228 20ft 0kts
18-Dec-20 22:02 37.619447 -122.379613 228 20ft 0kts
18-Dec-20 22:03 37.621230 -122.385734 297 16ft 34kts
18-Dec-20 22:04 37.620320 -122.392512 238 14ft 14kts
18-Dec-20 22:05 37.618524 -122.395212 157 16ft 5kts
18-Dec-20 22:06 37.618457 -122.394183 87 16ft 0kts
18-Dec-20 22:07 37.618457 -122.394183 87 16ft 0kts

Navigation Log

Ident Type
Flight plan parsing failed, navigation log unavailable